createdAt,value
2022-08-17T00:01:51.581Z,5.05
2022-08-17T00:05:58.160Z,6.20
2022-08-17T00:10:00.942Z,6.97
2022-08-17T00:14:06.745Z,5.43
2022-08-17T00:18:53.877Z,10.43
2022-08-17T00:22:36.454Z,6.45
2022-08-17T00:26:44.993Z,12.20
2022-08-17T00:30:52.971Z,6.57
2022-08-17T00:34:57.435Z,4.30
2022-08-17T00:39:00.170Z,5.53
2022-08-17T00:43:13.647Z,9.73
2022-08-17T00:47:16.450Z,4.72
2022-08-17T00:51:24.299Z,6.50
2022-08-17T00:55:27.507Z,5.55
2022-08-17T00:59:34.924Z,6.47
2022-08-17T01:03:39.189Z,5.88
2022-08-17T01:07:44.536Z,5.57
2022-08-17T01:11:52.221Z,6.05
2022-08-17T01:15:58.804Z,6.65
2022-08-17T01:20:01.724Z,8.73
2022-08-17T01:24:06.480Z,10.63
2022-08-17T01:28:09.499Z,5.50
2022-08-17T01:32:13.118Z,5.72
2022-08-17T01:36:15.977Z,9.02
2022-08-17T01:40:26.715Z,7.18
2022-08-17T01:44:29.577Z,6.65
2022-08-17T01:48:33.561Z,7.47
2022-08-17T01:52:36.621Z,9.10
2022-08-17T01:56:44.380Z,12.55
2022-08-17T02:01:01.067Z,5.35
2022-08-17T02:05:04.895Z,14.05
2022-08-17T02:09:08.151Z,7.47
2022-08-17T02:13:20.927Z,7.35
2022-08-17T02:17:23.823Z,12.98
2022-08-17T02:21:26.590Z,7.80
2022-08-17T02:25:32.883Z,6.38
2022-08-17T02:29:37.165Z,8.35
2022-08-17T02:33:42.659Z,5.82
2022-08-17T02:37:46.291Z,10.70
2022-08-17T02:42:01.937Z,6.88
2022-08-17T02:46:06.546Z,6.63
2022-08-17T02:50:11.476Z,7.75
2022-08-17T02:54:40.774Z,11.85
2022-08-17T02:58:37.083Z,12.18
2022-08-17T03:02:42.708Z,5.40
2022-08-17T03:06:45.511Z,7.00
2022-08-17T03:10:48.773Z,7.40
2022-08-17T03:14:51.493Z,6.95
2022-08-17T03:18:55.699Z,6.22
2022-08-17T03:23:03.017Z,8.10
2022-08-17T03:27:06.218Z,8.13
2022-08-17T03:31:08.984Z,6.00
2022-08-17T03:35:15.198Z,6.60
2022-08-17T03:39:20.687Z,8.35
2022-08-17T03:43:23.898Z,9.52
2022-08-17T03:47:44.299Z,7.07
2022-08-17T03:52:05.741Z,9.95
2022-08-17T03:56:26.168Z,10.80
2022-08-17T04:00:29.215Z,8.52
2022-08-17T04:04:32.004Z,8.65
2022-08-17T04:08:36.153Z,6.72
2022-08-17T04:12:50.638Z,7.63
2022-08-17T04:16:53.600Z,6.97
2022-08-17T04:20:57.899Z,6.13
2022-08-17T04:25:08.122Z,8.40
2022-08-17T04:29:10.883Z,5.38
2022-08-17T04:33:15.794Z,6.80
2022-08-17T04:37:18.715Z,8.40
2022-08-17T04:41:40.102Z,8.02
2022-08-17T04:45:55.434Z,5.65
2022-08-17T04:50:02.365Z,7.72
2022-08-17T04:54:07.718Z,8.70
2022-08-17T04:58:11.898Z,7.03
2022-08-17T05:02:15.135Z,6.30
2022-08-17T05:06:17.987Z,8.60
2022-08-17T05:10:21.149Z,8.02
2022-08-17T05:14:33.037Z,7.57
2022-08-17T05:18:37.204Z,9.30
2022-08-17T05:22:51.149Z,8.52
2022-08-17T05:26:54.105Z,9.85
2022-08-17T05:31:03.369Z,6.80
2022-08-17T05:35:07.608Z,4.75
2022-08-17T05:39:15.915Z,6.70
2022-08-17T05:43:22.061Z,6.80
2022-08-17T05:47:27.370Z,5.78
2022-08-17T05:51:43.847Z,5.90
2022-08-17T05:55:54.331Z,6.72
2022-08-17T06:00:06.299Z,6.28
2022-08-17T06:04:28.018Z,5.47
2022-08-17T06:08:39.510Z,3.65
2022-08-17T06:12:56.825Z,1.35
2022-08-17T06:17:05.395Z,2.30
2022-08-17T06:21:13.976Z,1.40
2022-08-17T06:29:30.786Z,2.97
2022-08-17T06:33:36.941Z,1.95
2022-08-17T06:37:59.267Z,3.40
2022-08-17T06:42:54.758Z,2.78
2022-08-17T06:46:37.610Z,2.55
2022-08-17T06:50:47.541Z,4.50
2022-08-17T06:54:59.913Z,3.08
2022-08-17T06:59:04.089Z,2.25
2022-08-17T07:03:15.517Z,2.10
2022-08-17T07:07:38.300Z,1.55
2022-08-17T07:11:51.022Z,4.13
2022-08-17T07:15:59.478Z,4.57
2022-08-17T07:20:08.534Z,2.75
2022-08-17T07:24:29.420Z,3.50
2022-08-17T07:28:35.873Z,5.25
2022-08-17T07:32:43.899Z,3.03
2022-08-17T07:36:46.701Z,2.20
2022-08-17T07:41:02.087Z,2.75
2022-08-17T07:45:29.186Z,2.28
2022-08-17T07:49:37.053Z,0.10
2022-08-17T07:53:39.837Z,0.33
2022-08-17T07:57:42.644Z,0.50
2022-08-17T08:01:49.298Z,0.40
2022-08-17T08:06:01.963Z,0.00
2022-08-17T08:10:11.036Z,0.00
2022-08-17T08:14:28.615Z,0.00
2022-08-17T08:18:53.672Z,0.10
2022-08-17T08:23:07.215Z,0.10
2022-08-17T08:27:20.702Z,0.30
2022-08-17T08:31:31.455Z,0.32
2022-08-17T08:35:40.324Z,0.43
2022-08-17T08:39:55.632Z,0.22
2022-08-17T08:44:11.255Z,0.10
2022-08-17T08:48:57.110Z,0.00
2022-08-17T08:53:01.201Z,0.00
2022-08-17T08:57:28.042Z,0.00
2022-08-17T09:01:51.911Z,0.00
2022-08-17T09:06:32.235Z,0.00
2022-08-17T09:10:56.778Z,0.45
2022-08-17T09:15:12.296Z,0.47
2022-08-17T09:19:21.003Z,0.10
2022-08-17T09:23:32.403Z,0.20
2022-08-17T09:27:48.265Z,0.10
2022-08-17T09:31:56.041Z,0.10
2022-08-17T09:36:03.551Z,0.10
2022-08-17T09:40:16.649Z,0.10
2022-08-17T09:44:27.765Z,0.52
2022-08-17T09:48:37.835Z,0.10
2022-08-17T09:52:42.629Z,0.10
2022-08-17T09:57:11.878Z,0.08
2022-08-17T10:01:31.378Z,0.17
2022-08-17T10:05:46.221Z,0.10
2022-08-17T10:10:01.564Z,2.08
2022-08-17T10:14:36.263Z,0.00
2022-08-17T10:23:05.575Z,0.10
2022-08-17T10:27:13.532Z,0.00
2022-08-17T10:31:40.086Z,0.00
2022-08-17T10:35:53.266Z,0.00
2022-08-17T10:40:17.489Z,0.00
2022-08-17T10:44:39.947Z,0.00
2022-08-17T10:48:44.327Z,0.00
2022-08-17T10:52:50.142Z,0.00
2022-08-17T10:56:54.875Z,0.00
2022-08-17T11:00:59.628Z,0.00
2022-08-17T11:05:15.572Z,0.00
2022-08-17T11:09:35.915Z,0.00
2022-08-17T11:13:48.438Z,0.00
2022-08-17T11:18:07.667Z,0.10
2022-08-17T11:22:36.638Z,0.00
2022-08-17T11:26:46.655Z,0.10
2022-08-17T11:30:52.039Z,0.10
2022-08-17T11:39:25.625Z,0.60
2022-08-17T11:43:55.358Z,1.92
2022-08-17T11:48:27.857Z,0.88
2022-08-17T11:52:40.770Z,0.30
2022-08-17T11:56:47.093Z,0.40
2022-08-17T12:01:09.547Z,0.20
2022-08-17T12:05:40.598Z,0.80
2022-08-17T12:09:48.719Z,2.22
2022-08-17T12:13:59.739Z,3.15
2022-08-17T12:18:03.981Z,4.55
2022-08-17T12:22:12.523Z,2.95
2022-08-17T12:26:19.759Z,1.40
2022-08-17T12:30:23.210Z,0.90
2022-08-17T12:34:35.878Z,0.85
2022-08-17T12:38:39.725Z,0.80
2022-08-17T12:42:42.634Z,0.73
2022-08-17T12:46:59.583Z,0.85
2022-08-17T12:51:07.776Z,0.93
2022-08-17T12:55:18.555Z,0.90
2022-08-17T12:59:29.935Z,0.77
2022-08-17T13:03:41.895Z,0.30
2022-08-17T13:07:47.494Z,0.20
2022-08-17T13:11:52.799Z,0.10
2022-08-17T13:15:58.033Z,0.00
2022-08-17T13:20:00.896Z,0.10
2022-08-17T13:24:14.613Z,0.05
2022-08-17T13:28:30.608Z,0.10
2022-08-17T13:32:43.576Z,0.03
2022-08-17T13:36:48.838Z,0.10
2022-08-17T13:40:55.022Z,0.10
2022-08-17T13:44:58.191Z,0.00
2022-08-17T13:49:03.701Z,0.10
2022-08-17T13:53:17.847Z,0.00
2022-08-17T13:57:24.627Z,0.10
2022-08-17T14:01:32.598Z,0.00
2022-08-17T14:05:38.268Z,0.10
2022-08-17T14:09:53.165Z,0.10
2022-08-17T14:13:57.268Z,0.00
2022-08-17T14:18:00.356Z,0.00
2022-08-17T14:22:03.631Z,0.00
2022-08-17T14:26:06.788Z,0.00
2022-08-17T14:30:11.982Z,0.00
2022-08-17T14:34:15.077Z,0.00
2022-08-17T14:38:18.751Z,0.00
2022-08-17T14:42:24.396Z,0.00
2022-08-17T14:46:28.615Z,0.00
2022-08-17T14:50:31.843Z,0.00
2022-08-17T14:54:34.784Z,0.00
2022-08-17T14:58:38.888Z,0.00
2022-08-17T15:02:50.846Z,0.00
2022-08-17T15:06:53.614Z,0.03
2022-08-17T15:10:56.372Z,0.00
2022-08-17T15:15:00.531Z,0.00
2022-08-17T15:19:05.157Z,0.00
2022-08-17T15:23:09.582Z,0.00
2022-08-17T15:27:12.917Z,0.00
2022-08-17T15:31:15.847Z,0.00
2022-08-17T15:35:27.453Z,0.00
2022-08-17T15:39:31.460Z,0.00
2022-08-17T15:43:34.791Z,0.00
2022-08-17T15:47:37.682Z,0.00
2022-08-17T15:51:41.760Z,0.52
2022-08-17T15:55:44.539Z,0.00
2022-08-17T15:59:47.618Z,0.00
2022-08-17T16:04:04.716Z,0.00
2022-08-17T16:08:11.571Z,0.00
2022-08-17T16:12:16.577Z,0.00
2022-08-17T16:16:19.334Z,0.00
2022-08-17T16:20:22.095Z,0.00
2022-08-17T16:24:26.481Z,0.00
2022-08-17T16:28:35.766Z,0.00
2022-08-17T16:32:40.306Z,0.00
2022-08-17T16:36:54.722Z,0.10
2022-08-17T16:40:59.947Z,0.00
2022-08-17T16:45:05.613Z,0.00
2022-08-17T16:49:08.622Z,0.00
2022-08-17T16:53:17.814Z,0.00
2022-08-17T16:57:23.183Z,0.10
2022-08-17T17:01:26.050Z,0.00
2022-08-17T17:05:51.411Z,0.00
2022-08-17T17:09:59.846Z,0.10
2022-08-17T17:14:07.751Z,0.10
2022-08-17T17:18:13.094Z,5.63
2022-08-17T17:22:20.503Z,0.55
2022-08-17T17:26:35.189Z,0.25
2022-08-17T17:30:49.339Z,0.22
2022-08-17T17:34:58.683Z,0.10
2022-08-17T17:39:06.791Z,0.55
2022-08-17T17:43:37.126Z,0.28
2022-08-17T17:47:38.290Z,0.20
2022-08-17T17:52:06.835Z,0.25
2022-08-17T17:56:43.119Z,0.20
2022-08-17T18:00:51.967Z,0.85
2022-08-17T18:05:07.552Z,0.90
2022-08-17T18:09:23.963Z,0.95
2022-08-17T18:13:39.176Z,0.73
2022-08-17T18:18:02.014Z,1.48
2022-08-17T18:22:13.081Z,1.40
2022-08-17T18:26:37.457Z,0.80
2022-08-17T18:30:40.212Z,0.63
2022-08-17T18:34:47.810Z,1.98
2022-08-17T18:39:11.296Z,1.10
2022-08-17T18:43:25.143Z,0.68
2022-08-17T18:47:29.306Z,0.95
2022-08-17T18:51:42.269Z,1.08
2022-08-17T18:55:47.568Z,5.00
2022-08-17T18:59:51.667Z,1.35
2022-08-17T19:03:54.544Z,1.92
2022-08-17T19:08:16.991Z,1.10
2022-08-17T19:12:28.475Z,1.65
2022-08-17T19:16:39.268Z,3.72
2022-08-17T19:20:45.535Z,1.20
2022-08-17T19:24:55.762Z,1.30
2022-08-17T19:29:16.154Z,1.10
2022-08-17T19:33:22.581Z,2.92
2022-08-17T19:37:36.423Z,1.52
2022-08-17T19:41:45.277Z,2.65
2022-08-17T19:46:01.644Z,1.77
2022-08-17T19:50:12.673Z,4.80
2022-08-17T19:54:21.064Z,2.05
2022-08-17T19:58:38.383Z,2.08
2022-08-17T20:02:52.782Z,1.88
2022-08-17T20:06:57.644Z,4.80
2022-08-17T20:11:05.570Z,2.58
2022-08-17T20:15:12.410Z,1.60
2022-08-17T20:19:24.364Z,2.42
2022-08-17T20:23:41.850Z,3.22
2022-08-17T20:27:52.298Z,2.58
2022-08-17T20:32:13.981Z,2.42
2022-08-17T20:36:20.381Z,2.38
2022-08-17T20:40:29.876Z,5.95
2022-08-17T20:44:34.456Z,3.22
2022-08-17T20:48:42.012Z,3.55
2022-08-17T20:52:51.785Z,2.88
2022-08-17T20:56:57.660Z,3.22
2022-08-17T21:01:12.800Z,6.55
2022-08-17T21:05:32.309Z,2.10
2022-08-17T21:09:38.607Z,3.80
2022-08-17T21:14:05.469Z,5.53
2022-08-17T21:18:18.339Z,10.02
2022-08-17T21:22:35.089Z,6.22
2022-08-17T21:26:51.088Z,2.17
2022-08-17T21:30:58.378Z,2.75
2022-08-17T21:35:28.410Z,3.67
2022-08-17T21:39:34.378Z,2.45
2022-08-17T21:43:48.522Z,3.45
2022-08-17T21:48:07.313Z,3.00
2022-08-17T21:52:15.065Z,3.08
2022-08-17T21:56:25.114Z,3.85
2022-08-17T22:00:32.239Z,2.70
2022-08-17T22:04:37.219Z,7.13
2022-08-17T22:08:39.999Z,3.47
2022-08-17T22:13:03.327Z,8.90
2022-08-17T22:17:16.455Z,4.15
2022-08-17T22:21:19.822Z,5.20
2022-08-17T22:25:27.075Z,6.30
2022-08-17T22:29:54.267Z,5.07
2022-08-17T22:34:14.236Z,6.13
2022-08-17T22:38:31.971Z,17.38
2022-08-17T22:42:42.768Z,6.85
2022-08-17T22:46:56.350Z,7.05
2022-08-17T22:51:12.849Z,8.93
2022-08-17T22:55:36.155Z,7.20
2022-08-17T22:59:46.706Z,6.30
2022-08-17T23:03:55.127Z,7.95
2022-08-17T23:07:59.251Z,8.73
2022-08-17T23:12:02.296Z,9.73
2022-08-17T23:16:05.692Z,6.60
2022-08-17T23:20:12.027Z,5.75
2022-08-17T23:24:20.684Z,5.82
2022-08-17T23:28:23.359Z,6.13
2022-08-17T23:32:26.553Z,6.88
2022-08-17T23:36:29.398Z,7.80
2022-08-17T23:40:33.491Z,7.53
2022-08-17T23:44:36.882Z,5.47
2022-08-17T23:48:41.026Z,12.65
2022-08-17T23:52:46.520Z,5.85
2022-08-17T23:56:50.743Z,8.23
